fecha-hora | temperatura | viento dirección-velocidad-rachas | humedad | presión

  • 11-04-2019 21:00:00 | 10.10°C | Sudeste-4.00 km/h - 10.00 km/h | 89.00% | 982.50 hPa
  • 11-04-2019 20:00:00 | 10.40°C | Este-4.00 km/h - 13.00 km/h | 87.00% | 982.50 hPa
  • 11-04-2019 19:00:00 | 10.80°C | Nordeste-8.00 km/h - 17.00 km/h | 82.00% | 982.40 hPa
  • 11-04-2019 18:00:00 | 11.40°C | Nordeste-7.00 km/h - 15.00 km/h | 78.00% | 982.30 hPa
  • 11-04-2019 17:00:00 | 11.10°C | Norte-6.00 km/h - 18.00 km/h | 79.00% | 982.30 hPa
  • 11-04-2019 16:00:00 | 10.60°C | Norte-6.00 km/h - 24.00 km/h | 86.00% | 982.60 hPa
  • 11-04-2019 15:00:00 | 11.00°C | Norte-9.00 km/h - 14.00 km/h | 73.00% | 982.50 hPa
  • 11-04-2019 14:00:00 | 10.70°C | Noroeste-10.00 km/h - 17.00 km/h | 77.00% | 982.60 hPa
  • 11-04-2019 13:00:00 | 9.80°C | Noroeste-5.00 km/h - 12.00 km/h | 82.00% | 982.70 hPa
  • 11-04-2019 12:00:00 | 9.80°C | Oeste-5.00 km/h - 10.00 km/h | 82.00% | 982.60 hPa
  • 11-04-2019 11:00:00 | 7.90°C | Sudoeste-5.00 km/h - 8.00 km/h | 98.00% | 982.30 hPa
  • 11-04-2019 10:00:00 | 6.60°C | Sudoeste-4.00 km/h - 8.00 km/h | 99.00% | 982.10 hPa
  • 11-04-2019 09:00:00 | 5.80°C | Sur-4.00 km/h - 8.00 km/h | 99.00% | 981.90 hPa
  • 11-04-2019 08:00:00 | 5.50°C | Sur-5.00 km/h - 12.00 km/h | 99.00% | 981.50 hPa
  • 11-04-2019 07:00:00 | 5.80°C | Sur-6.00 km/h - 12.00 km/h | 99.00% | 981.40 hPa
  • 11-04-2019 06:00:00 | 6.20°C | Sur-7.00 km/h - 10.00 km/h | 99.00% | 981.70 hPa
  • 11-04-2019 05:00:00 | 6.50°C | Sudoeste-5.00 km/h - 8.00 km/h | 98.00% | 981.50 hPa
  • 11-04-2019 04:00:00 | 6.80°C | Sudoeste-3.00 km/h - 9.00 km/h | 97.00% | 981.40 hPa
  • 11-04-2019 03:00:00 | 7.10°C | Sudoeste-7.00 km/h - 10.00 km/h | 97.00% | 981.50 hPa
  • 11-04-2019 02:00:00 | 7.40°C | Sudoeste-4.00 km/h - 7.00 km/h | 95.00% | 981.70 hPa
  • 11-04-2019 01:00:00 | 8.00°C | Oeste-5.00 km/h - 7.00 km/h | 94.00% | 981.70 hPa
  • 11-04-2019 00:00:00 | 8.00°C | Oeste-7.00 km/h - 13.00 km/h | 95.00% | 981.60 hPa
  • 10-04-2019 23:00:00 | 8.80°C | Oeste-4.00 km/h - 11.00 km/h | 91.00% | 981.60 hPa
  • 10-04-2019 22:00:00 | 9.20°C | Noroeste-7.00 km/h - 17.00 km/h | 86.00% | 980.90 hPa
    • diseño web asturias Información sobre el estado de las mareas, altura de la marejada, temperatura del agua y otros datos de Gijón en Asturias.

      Surf Gijón